createdAt,value
2023-01-31T00:00:28.557Z,3.15
2023-01-31T00:05:32.862Z,3.07
2023-01-31T00:10:36.200Z,3.12
2023-01-31T00:15:39.419Z,3.04
2023-01-31T00:20:44.041Z,3.12
2023-01-31T00:25:47.463Z,3.05
2023-01-31T00:30:50.360Z,3.15
2023-01-31T00:35:54.604Z,3.02
2023-01-31T00:40:59.078Z,3.04
2023-01-31T00:46:02.006Z,2.85
2023-01-31T00:51:07.163Z,2.64
2023-01-31T00:56:12.058Z,2.40
2023-01-31T01:01:17.288Z,2.37
2023-01-31T01:06:23.691Z,2.18
2023-01-31T01:11:29.717Z,2.16
2023-01-31T01:16:35.541Z,2.00
2023-01-31T01:21:41.171Z,2.04
2023-01-31T01:26:44.769Z,2.17
2023-01-31T01:31:47.761Z,2.25
2023-01-31T01:36:52.025Z,2.20
2023-01-31T01:41:54.967Z,2.13
2023-01-31T01:46:57.960Z,2.14
2023-01-31T01:52:06.570Z,2.07
2023-01-31T01:57:12.213Z,2.13
2023-01-31T02:02:16.201Z,2.12
2023-01-31T02:07:20.688Z,2.20
2023-01-31T02:12:25.119Z,2.38
2023-01-31T02:17:28.125Z,2.40
2023-01-31T02:22:38.124Z,2.41
2023-01-31T02:28:15.899Z,2.48
2023-01-31T02:33:24.910Z,2.42
2023-01-31T02:38:41.581Z,2.48
2023-01-31T02:44:10.018Z,2.59
2023-01-31T02:49:34.639Z,2.56
2023-01-31T02:54:56.497Z,2.53
2023-01-31T03:00:00.035Z,2.46
2023-01-31T03:05:04.947Z,2.46
2023-01-31T03:10:20.732Z,2.38
2023-01-31T03:15:59.031Z,2.45
2023-01-31T03:21:09.204Z,2.45
2023-01-31T03:26:13.093Z,2.44
2023-01-31T03:31:20.090Z,2.31
2023-01-31T03:36:34.337Z,2.35
2023-01-31T03:41:58.524Z,2.04
2023-01-31T03:47:07.405Z,1.74
2023-01-31T03:52:15.010Z,1.51
2023-01-31T03:57:23.931Z,1.46
2023-01-31T04:02:33.262Z,1.53
2023-01-31T04:07:38.376Z,1.58
2023-01-31T04:12:42.832Z,1.64
2023-01-31T04:17:45.809Z,1.78
2023-01-31T04:22:50.137Z,1.84
2023-01-31T04:27:53.034Z,2.00
2023-01-31T04:32:55.915Z,2.01
2023-01-31T04:38:00.160Z,2.06
2023-01-31T04:43:03.180Z,2.11
2023-01-31T04:48:07.020Z,2.23
2023-01-31T04:53:11.853Z,2.15
2023-01-31T04:58:14.806Z,2.21
2023-01-31T05:03:17.754Z,2.18
2023-01-31T05:08:21.990Z,2.27
2023-01-31T05:13:25.390Z,2.26
2023-01-31T05:18:28.575Z,2.28
2023-01-31T05:23:33.481Z,2.34
2023-01-31T05:28:36.354Z,2.40
2023-01-31T05:33:39.523Z,2.54
2023-01-31T05:38:43.811Z,2.50
2023-01-31T05:43:46.704Z,2.49
2023-01-31T05:48:49.617Z,2.43
2023-01-31T05:53:54.975Z,2.52
2023-01-31T05:58:57.868Z,2.40
2023-01-31T06:04:00.881Z,2.40
2023-01-31T06:09:05.193Z,2.39
2023-01-31T06:14:09.285Z,2.36
2023-01-31T06:19:12.123Z,2.42
2023-01-31T06:24:16.364Z,2.37
2023-01-31T06:29:19.374Z,2.38
2023-01-31T06:34:22.299Z,2.37
2023-01-31T06:39:26.838Z,2.35
2023-01-31T06:44:30.415Z,2.44
2023-01-31T06:49:33.362Z,2.43
2023-01-31T06:54:37.609Z,2.43
2023-01-31T06:59:40.455Z,2.43
2023-01-31T07:04:43.375Z,2.46
2023-01-31T07:09:47.888Z,2.50
2023-01-31T07:14:50.844Z,2.50
2023-01-31T07:19:53.700Z,2.64
2023-01-31T07:24:57.938Z,2.74
2023-01-31T07:30:00.865Z,2.91
2023-01-31T07:35:03.778Z,2.95
2023-01-31T07:40:09.864Z,2.89
2023-01-31T07:45:22.912Z,2.88
2023-01-31T07:50:27.266Z,2.85
2023-01-31T07:55:32.063Z,2.77
2023-01-31T08:00:52.275Z,2.82
2023-01-31T08:05:55.263Z,2.95
2023-01-31T08:10:59.694Z,3.22
2023-01-31T08:16:02.835Z,3.27
2023-01-31T08:21:07.093Z,3.43
2023-01-31T08:26:14.106Z,3.67
2023-01-31T08:31:21.099Z,3.60
2023-01-31T08:36:26.319Z,3.46
2023-01-31T08:41:31.558Z,3.37
2023-01-31T08:46:36.711Z,3.39
2023-01-31T08:51:39.605Z,3.44
2023-01-31T08:56:43.909Z,3.60
2023-01-31T09:01:46.916Z,3.59
2023-01-31T09:06:50.204Z,3.86
2023-01-31T09:11:54.476Z,4.06
2023-01-31T09:16:57.390Z,4.25
2023-01-31T09:22:00.339Z,4.12
2023-01-31T09:27:05.395Z,4.51
2023-01-31T09:32:08.475Z,4.80
2023-01-31T09:37:11.384Z,4.70
2023-01-31T09:42:23.272Z,4.76
2023-01-31T09:47:30.083Z,4.73
2023-01-31T09:52:33.788Z,4.86
2023-01-31T09:57:47.011Z,5.16
2023-01-31T10:03:18.722Z,5.39
2023-01-31T10:08:33.171Z,5.18
2023-01-31T10:13:40.700Z,5.05
2023-01-31T10:18:48.222Z,4.82
2023-01-31T10:23:56.122Z,4.84
2023-01-31T10:29:06.616Z,4.72
2023-01-31T10:34:17.128Z,4.95
2023-01-31T10:39:25.555Z,4.68
2023-01-31T10:44:37.982Z,4.63
2023-01-31T10:49:41.570Z,4.65
2023-01-31T10:54:55.204Z,4.69
2023-01-31T11:00:00.697Z,4.79
2023-01-31T11:05:04.193Z,4.62
2023-01-31T11:10:24.108Z,4.65
2023-01-31T11:15:31.072Z,4.67
2023-01-31T11:20:37.196Z,4.84
2023-01-31T11:25:40.568Z,4.91
2023-01-31T11:30:50.238Z,4.86
2023-01-31T11:35:53.597Z,5.05
2023-01-31T11:40:56.500Z,5.25
2023-01-31T11:46:03.645Z,5.27
2023-01-31T11:51:07.513Z,5.28
2023-01-31T11:56:15.236Z,5.26
2023-01-31T12:01:21.986Z,5.44
2023-01-31T12:06:29.956Z,5.57
2023-01-31T12:11:34.978Z,5.43
2023-01-31T12:16:39.474Z,5.38
2023-01-31T12:21:55.429Z,5.32
2023-01-31T12:27:04.100Z,5.44
2023-01-31T12:32:26.061Z,5.39
2023-01-31T12:37:42.297Z,5.22
2023-01-31T12:42:57.840Z,5.11
2023-01-31T12:48:24.580Z,5.01
2023-01-31T12:53:52.126Z,4.95
2023-01-31T12:59:15.480Z,4.90
2023-01-31T13:04:32.033Z,4.84
2023-01-31T13:09:36.960Z,4.70
2023-01-31T13:14:43.921Z,4.75
2023-01-31T13:19:52.568Z,4.54
2023-01-31T13:25:05.740Z,4.39
2023-01-31T13:30:21.655Z,4.51
2023-01-31T13:35:30.433Z,4.31
2023-01-31T13:40:39.650Z,4.14
2023-01-31T13:45:48.296Z,3.84
2023-01-31T13:50:55.240Z,3.81
2023-01-31T13:55:59.041Z,3.75
2023-01-31T14:01:07.183Z,3.87
2023-01-31T14:06:11.548Z,3.61
2023-01-31T14:11:34.151Z,3.57
2023-01-31T14:16:42.318Z,3.60
2023-01-31T14:21:53.428Z,3.64
2023-01-31T14:26:56.476Z,3.59
2023-01-31T14:31:59.983Z,3.66
2023-01-31T14:37:13.086Z,3.56
2023-01-31T14:42:37.141Z,3.59
2023-01-31T14:47:55.338Z,3.49
2023-01-31T14:53:13.156Z,3.54
2023-01-31T14:58:20.619Z,3.51
2023-01-31T15:03:28.954Z,3.57
2023-01-31T15:08:38.156Z,3.52
2023-01-31T15:13:48.213Z,3.50
2023-01-31T15:18:55.543Z,3.42
2023-01-31T15:24:01.281Z,3.45
2023-01-31T15:29:05.687Z,3.30
2023-01-31T15:34:17.245Z,3.30
2023-01-31T15:39:27.206Z,3.29
2023-01-31T15:44:30.159Z,3.19
2023-01-31T15:49:40.652Z,3.15
2023-01-31T15:54:58.701Z,3.15
2023-01-31T16:00:01.784Z,3.10
2023-01-31T16:05:24.746Z,3.00
2023-01-31T16:10:31.160Z,2.96
2023-01-31T16:15:34.126Z,2.91
2023-01-31T16:20:40.540Z,2.89
2023-01-31T16:25:53.805Z,2.81
2023-01-31T16:31:05.561Z,2.89
2023-01-31T16:36:16.589Z,2.90
2023-01-31T16:41:47.641Z,2.99
2023-01-31T16:46:51.857Z,3.01
2023-01-31T16:51:57.885Z,3.04
2023-01-31T16:57:22.465Z,3.08
2023-01-31T17:02:27.551Z,3.08
2023-01-31T17:07:33.517Z,3.02
2023-01-31T17:12:40.973Z,3.04
2023-01-31T17:17:44.256Z,3.11
2023-01-31T17:22:56.973Z,3.24
2023-01-31T17:28:07.899Z,3.35
2023-01-31T17:33:13.693Z,3.40
2023-01-31T17:38:16.657Z,3.43
2023-01-31T17:43:25.140Z,3.46
2023-01-31T17:48:29.490Z,3.42
2023-01-31T17:53:40.500Z,3.51
2023-01-31T17:58:52.099Z,3.50
2023-01-31T18:03:55.323Z,3.57
2023-01-31T18:09:02.727Z,3.58
2023-01-31T18:14:07.153Z,3.71
2023-01-31T18:19:11.454Z,3.77
2023-01-31T18:24:14.477Z,3.88
2023-01-31T18:29:20.935Z,3.92
2023-01-31T18:34:23.901Z,3.96
2023-01-31T18:39:26.931Z,4.00
2023-01-31T18:44:31.376Z,4.03
2023-01-31T18:49:34.360Z,4.08
2023-01-31T18:54:38.243Z,4.07
2023-01-31T18:59:42.685Z,4.09
2023-01-31T19:04:45.720Z,4.11
2023-01-31T19:09:48.625Z,4.14
2023-01-31T19:14:56.368Z,4.06
2023-01-31T19:19:59.390Z,4.06
2023-01-31T19:25:02.332Z,4.03
2023-01-31T19:30:08.129Z,4.21
2023-01-31T19:35:11.350Z,4.28
2023-01-31T19:40:14.646Z,4.24
2023-01-31T19:45:22.669Z,4.31
2023-01-31T19:50:25.875Z,4.37
2023-01-31T19:55:28.941Z,4.37
2023-01-31T20:00:33.398Z,4.39
2023-01-31T20:05:36.343Z,4.36
2023-01-31T20:10:39.250Z,4.34
2023-01-31T20:15:43.511Z,4.25
2023-01-31T20:20:46.411Z,4.14
2023-01-31T20:25:50.296Z,4.13
2023-01-31T20:30:55.316Z,4.11
2023-01-31T20:35:58.705Z,4.00
2023-01-31T20:41:01.715Z,4.17
2023-01-31T20:46:08.012Z,4.29
2023-01-31T20:51:11.191Z,4.28
2023-01-31T20:56:14.410Z,4.31
2023-01-31T21:01:18.703Z,4.35
2023-01-31T21:06:21.782Z,4.33
2023-01-31T21:11:24.716Z,4.15
2023-01-31T21:16:29.064Z,3.99
2023-01-31T21:21:33.317Z,3.55
2023-01-31T21:26:37.113Z,3.63
2023-01-31T21:31:41.540Z,3.71
2023-01-31T21:36:45.872Z,3.77
2023-01-31T21:42:06.072Z,3.74
2023-01-31T21:47:10.602Z,3.81
2023-01-31T21:52:13.516Z,3.85
2023-01-31T21:57:16.395Z,3.96
2023-01-31T22:02:20.684Z,3.90
2023-01-31T22:07:23.607Z,3.96
2023-01-31T22:12:26.519Z,4.07
2023-01-31T22:17:30.773Z,4.18
2023-01-31T22:22:33.655Z,4.21
2023-01-31T22:27:36.578Z,4.26
2023-01-31T22:32:40.814Z,4.34
2023-01-31T22:37:43.731Z,4.37
2023-01-31T22:42:46.682Z,4.44
2023-01-31T22:47:50.926Z,4.46
2023-01-31T22:52:53.837Z,4.41
2023-01-31T22:57:58.242Z,4.47
2023-01-31T23:03:02.789Z,4.52
2023-01-31T23:08:06.368Z,4.50
2023-01-31T23:13:10.201Z,4.37
2023-01-31T23:18:18.201Z,4.37
2023-01-31T23:23:21.966Z,4.45
2023-01-31T23:28:24.824Z,4.48
2023-01-31T23:33:29.390Z,4.60
2023-01-31T23:38:32.248Z,4.60
2023-01-31T23:43:35.239Z,4.56
2023-01-31T23:48:41.800Z,4.55
2023-01-31T23:53:44.671Z,4.39
2023-01-31T23:58:47.611Z,4.49
